sensor_id;sensor_type;location;lat;lon;timestamp;pressure;altitude;pressure_sealevel;temperature;humidity
7802;BME280;3945;48.952;9.506;2023-03-18T00:01:44;97489.75;;;9.44;79.02
7802;BME280;3945;48.952;9.506;2023-03-18T00:04:11;97486.56;;;9.42;79.05
7802;BME280;3945;48.952;9.506;2023-03-18T00:06:37;97479.31;;;9.37;79.12
7802;BME280;3945;48.952;9.506;2023-03-18T00:09:04;97478.50;;;9.37;78.98
7802;BME280;3945;48.952;9.506;2023-03-18T00:11:31;97483.44;;;9.28;79.98
7802;BME280;3945;48.952;9.506;2023-03-18T00:13:57;97483.28;;;9.18;79.81
7802;BME280;3945;48.952;9.506;2023-03-18T00:16:25;97480.00;;;9.11;80.21
7802;BME280;3945;48.952;9.506;2023-03-18T00:18:52;97474.38;;;9.08;80.80
7802;BME280;3945;48.952;9.506;2023-03-18T00:21:18;97480.16;;;9.05;80.13
7802;BME280;3945;48.952;9.506;2023-03-18T00:23:47;97485.94;;;9.01;80.20
7802;BME280;3945;48.952;9.506;2023-03-18T00:26:18;97488.84;;;9.00;80.28
7802;BME280;3945;48.952;9.506;2023-03-18T00:28:44;97491.50;;;9.00;80.02
7802;BME280;3945;48.952;9.506;2023-03-18T00:31:11;97495.28;;;9.04;79.58
7802;BME280;3945;48.952;9.506;2023-03-18T00:33:39;97500.13;;;9.07;79.40
7802;BME280;3945;48.952;9.506;2023-03-18T00:36:07;97498.50;;;9.06;79.59
7802;BME280;3945;48.952;9.506;2023-03-18T00:38:37;97498.66;;;8.99;80.11
7802;BME280;3945;48.952;9.506;2023-03-18T00:41:05;97503.97;;;8.99;79.94
7802;BME280;3945;48.952;9.506;2023-03-18T00:43:36;97500.41;;;8.94;80.55
7802;BME280;3945;48.952;9.506;2023-03-18T00:46:10;97507.25;;;8.90;80.35
7802;BME280;3945;48.952;9.506;2023-03-18T00:48:37;97506.69;;;8.88;81.09
7802;BME280;3945;48.952;9.506;2023-03-18T00:51:05;97504.53;;;8.85;80.98
7802;BME280;3945;48.952;9.506;2023-03-18T00:53:31;97498.63;;;8.83;81.23
7802;BME280;3945;48.952;9.506;2023-03-18T00:55:58;97505.78;;;8.82;80.68
7802;BME280;3945;48.952;9.506;2023-03-18T00:58:24;97506.25;;;8.79;81.07
7802;BME280;3945;48.952;9.506;2023-03-18T01:00:51;97505.78;;;8.82;80.44
7802;BME280;3945;48.952;9.506;2023-03-18T01:03:17;97511.81;;;8.78;80.46
7802;BME280;3945;48.952;9.506;2023-03-18T01:05:43;97512.63;;;8.78;80.39
7802;BME280;3945;48.952;9.506;2023-03-18T01:08:11;97514.72;;;8.76;80.34
7802;BME280;3945;48.952;9.506;2023-03-18T01:10:37;97520.34;;;8.80;80.06
7802;BME280;3945;48.952;9.506;2023-03-18T01:13:04;97532.78;;;8.79;80.80
7802;BME280;3945;48.952;9.506;2023-03-18T01:15:30;97523.38;;;8.72;80.68
7802;BME280;3945;48.952;9.506;2023-03-18T01:17:56;97520.72;;;8.72;80.28
7802;BME280;3945;48.952;9.506;2023-03-18T01:20:23;97518.22;;;8.65;80.62
7802;BME280;3945;48.952;9.506;2023-03-18T01:22:50;97515.25;;;8.61;80.04
7802;BME280;3945;48.952;9.506;2023-03-18T01:25:18;97509.38;;;8.59;80.65
7802;BME280;3945;48.952;9.506;2023-03-18T01:27:46;97512.25;;;8.58;80.33
7802;BME280;3945;48.952;9.506;2023-03-18T01:30:12;97511.38;;;8.52;81.02
7802;BME280;3945;48.952;9.506;2023-03-18T01:32:39;97515.44;;;8.43;81.22
7802;BME280;3945;48.952;9.506;2023-03-18T01:35:06;97519.03;;;8.37;81.23
7802;BME280;3945;48.952;9.506;2023-03-18T01:37:33;97519.53;;;8.34;81.73
7802;BME280;3945;48.952;9.506;2023-03-18T01:39:59;97524.81;;;8.34;80.92
7802;BME280;3945;48.952;9.506;2023-03-18T01:42:27;97519.75;;;8.33;82.63
7802;BME280;3945;48.952;9.506;2023-03-18T01:45:08;97517.78;;;8.28;82.35
7802;BME280;3945;48.952;9.506;2023-03-18T01:47:34;97522.31;;;8.16;83.13
7802;BME280;3945;48.952;9.506;2023-03-18T01:50:01;97529.94;;;8.12;82.33
7802;BME280;3945;48.952;9.506;2023-03-18T01:52:28;97519.78;;;8.09;82.70
7802;BME280;3945;48.952;9.506;2023-03-18T01:54:57;97514.50;;;8.09;82.51
7802;BME280;3945;48.952;9.506;2023-03-18T01:57:24;97521.19;;;8.12;83.11
7802;BME280;3945;48.952;9.506;2023-03-18T01:59:53;97508.38;;;8.09;82.06
7802;BME280;3945;48.952;9.506;2023-03-18T02:02:21;97510.72;;;8.05;82.46
7802;BME280;3945;48.952;9.506;2023-03-18T02:04:48;97512.78;;;8.03;83.03
7802;BME280;3945;48.952;9.506;2023-03-18T02:07:16;97512.44;;;8.00;82.70
7802;BME280;3945;48.952;9.506;2023-03-18T02:09:42;97517.50;;;8.01;82.86
7802;BME280;3945;48.952;9.506;2023-03-18T02:12:10;97504.88;;;7.92;83.54
7802;BME280;3945;48.952;9.506;2023-03-18T02:14:37;97499.13;;;7.83;83.37
7802;BME280;3945;48.952;9.506;2023-03-18T02:17:07;97503.03;;;7.80;83.40
7802;BME280;3945;48.952;9.506;2023-03-18T02:22:21;97499.13;;;7.83;83.82
7802;BME280;3945;48.952;9.506;2023-03-18T02:24:52;97498.91;;;7.84;83.87
7802;BME280;3945;48.952;9.506;2023-03-18T02:27:22;97497.50;;;7.82;84.38
7802;BME280;3945;48.952;9.506;2023-03-18T02:29:51;97500.75;;;7.84;84.47
7802;BME280;3945;48.952;9.506;2023-03-18T02:32:18;97501.53;;;7.84;83.94
7802;BME280;3945;48.952;9.506;2023-03-18T02:34:45;97501.88;;;7.88;84.53
7802;BME280;3945;48.952;9.506;2023-03-18T02:37:12;97502.91;;;7.87;84.39
7802;BME280;3945;48.952;9.506;2023-03-18T02:39:38;97498.19;;;7.89;85.06
7802;BME280;3945;48.952;9.506;2023-03-18T02:42:05;97513.63;;;7.92;84.19
7802;BME280;3945;48.952;9.506;2023-03-18T02:44:33;97520.50;;;7.93;84.67
7802;BME280;3945;48.952;9.506;2023-03-18T02:47:03;97516.81;;;7.94;84.49
7802;BME280;3945;48.952;9.506;2023-03-18T02:49:33;97522.94;;;7.95;84.10
7802;BME280;3945;48.952;9.506;2023-03-18T02:51:59;97521.09;;;7.95;84.15
7802;BME280;3945;48.952;9.506;2023-03-18T02:54:26;97521.09;;;7.95;84.46
7802;BME280;3945;48.952;9.506;2023-03-18T02:56:53;97519.47;;;7.94;84.03
7802;BME280;3945;48.952;9.506;2023-03-18T02:59:20;97520.63;;;7.87;83.91
7802;BME280;3945;48.952;9.506;2023-03-18T03:01:49;97527.91;;;7.79;83.46
7802;BME280;3945;48.952;9.506;2023-03-18T03:04:16;97531.84;;;7.77;83.09
7802;BME280;3945;48.952;9.506;2023-03-18T03:06:43;97538.75;;;7.66;83.97
7802;BME280;3945;48.952;9.506;2023-03-18T03:09:10;97533.25;;;7.56;84.17
7802;BME280;3945;48.952;9.506;2023-03-18T03:11:37;97531.16;;;7.47;84.53
7802;BME280;3945;48.952;9.506;2023-03-18T03:14:04;97527.94;;;7.44;85.89
7802;BME280;3945;48.952;9.506;2023-03-18T03:16:31;97534.63;;;7.47;85.16
7802;BME280;3945;48.952;9.506;2023-03-18T03:18:59;97537.84;;;7.49;85.08
7802;BME280;3945;48.952;9.506;2023-03-18T03:21:25;97540.03;;;7.52;85.05
7802;BME280;3945;48.952;9.506;2023-03-18T03:23:51;97542.09;;;7.50;84.81
7802;BME280;3945;48.952;9.506;2023-03-18T03:26:18;97545.66;;;7.44;85.18
7802;BME280;3945;48.952;9.506;2023-03-18T03:28:45;97538.88;;;7.36;85.69
7802;BME280;3945;48.952;9.506;2023-03-18T03:31:11;97542.22;;;7.32;86.16
7802;BME280;3945;48.952;9.506;2023-03-18T03:33:38;97544.16;;;7.36;84.48
7802;BME280;3945;48.952;9.506;2023-03-18T03:36:08;97542.31;;;7.37;84.57
7802;BME280;3945;48.952;9.506;2023-03-18T03:38:34;97547.38;;;7.38;85.48
7802;BME280;3945;48.952;9.506;2023-03-18T03:41:00;97550.03;;;7.38;85.15
7802;BME280;3945;48.952;9.506;2023-03-18T03:43:27;97545.19;;;7.35;85.84
7802;BME280;3945;48.952;9.506;2023-03-18T03:45:53;97554.97;;;7.35;85.34
7802;BME280;3945;48.952;9.506;2023-03-18T03:48:20;97562.56;;;7.31;84.88
7802;BME280;3945;48.952;9.506;2023-03-18T03:50:46;97566.03;;;7.32;85.82
7802;BME280;3945;48.952;9.506;2023-03-18T03:53:15;97562.00;;;7.29;85.36
7802;BME280;3945;48.952;9.506;2023-03-18T03:55:41;97563.59;;;7.30;85.16
7802;BME280;3945;48.952;9.506;2023-03-18T03:58:08;97568.69;;;7.32;85.05
7802;BME280;3945;48.952;9.506;2023-03-18T04:00:35;97564.41;;;7.31;84.49
7802;BME280;3945;48.952;9.506;2023-03-18T04:03:01;97567.28;;;7.29;84.43
7802;BME280;3945;48.952;9.506;2023-03-18T04:05:28;97566.25;;;7.30;84.83
7802;BME280;3945;48.952;9.506;2023-03-18T04:07:54;97562.00;;;7.29;84.69
7802;BME280;3945;48.952;9.506;2023-03-18T04:10:25;97567.06;;;7.31;84.26
7802;BME280;3945;48.952;9.506;2023-03-18T04:12:52;97577.06;;;7.29;84.05
7802;BME280;3945;48.952;9.506;2023-03-18T04:15:19;97573.50;;;7.23;84.33
7802;BME280;3945;48.952;9.506;2023-03-18T04:17:46;97577.38;;;7.21;84.06
7802;BME280;3945;48.952;9.506;2023-03-18T04:20:12;97569.91;;;7.18;83.96
7802;BME280;3945;48.952;9.506;2023-03-18T04:22:39;97566.47;;;7.17;84.15
7802;BME280;3945;48.952;9.506;2023-03-18T04:25:07;97569.34;;;7.16;83.73
7802;BME280;3945;48.952;9.506;2023-03-18T04:27:36;97573.00;;;7.15;83.71
7802;BME280;3945;48.952;9.506;2023-03-18T04:30:03;97563.72;;;7.12;83.63
7802;BME280;3945;48.952;9.506;2023-03-18T04:32:30;97572.69;;;7.11;83.56
7802;BME280;3945;48.952;9.506;2023-03-18T04:34:56;97571.28;;;7.09;83.49
7802;BME280;3945;48.952;9.506;2023-03-18T04:37:22;97573.69;;;7.10;82.30
7802;BME280;3945;48.952;9.506;2023-03-18T04:39:49;97575.97;;;7.06;82.79
7802;BME280;3945;48.952;9.506;2023-03-18T04:42:15;97577.25;;;7.04;82.61
7802;BME280;3945;48.952;9.506;2023-03-18T04:44:43;97576.56;;;6.97;82.90
7802;BME280;3945;48.952;9.506;2023-03-18T04:47:10;97582.16;;;6.89;82.70
7802;BME280;3945;48.952;9.506;2023-03-18T04:49:36;97586.63;;;6.88;82.81
7802;BME280;3945;48.952;9.506;2023-03-18T04:52:03;97578.72;;;6.88;83.18
7802;BME280;3945;48.952;9.506;2023-03-18T04:54:29;97578.94;;;6.87;83.18
7802;BME280;3945;48.952;9.506;2023-03-18T04:56:56;97578.13;;;6.86;83.27
7802;BME280;3945;48.952;9.506;2023-03-18T04:59:22;97582.84;;;6.84;82.66
7802;BME280;3945;48.952;9.506;2023-03-18T05:01:50;97581.75;;;6.74;82.61
7802;BME280;3945;48.952;9.506;2023-03-18T05:04:16;97581.84;;;6.67;83.38
7802;BME280;3945;48.952;9.506;2023-03-18T05:06:42;97587.81;;;6.62;82.86
7802;BME280;3945;48.952;9.506;2023-03-18T05:09:09;97586.22;;;6.61;82.86
7802;BME280;3945;48.952;9.506;2023-03-18T05:11:36;97580.91;;;6.61;83.19
7802;BME280;3945;48.952;9.506;2023-03-18T05:14:03;97583.31;;;6.63;82.91
7802;BME280;3945;48.952;9.506;2023-03-18T05:16:29;97574.59;;;6.62;82.68
7802;BME280;3945;48.952;9.506;2023-03-18T05:18:57;97579.09;;;6.62;83.18
7802;BME280;3945;48.952;9.506;2023-03-18T05:21:23;97573.00;;;6.61;83.46
7802;BME280;3945;48.952;9.506;2023-03-18T05:23:49;97581.94;;;6.60;83.05
7802;BME280;3945;48.952;9.506;2023-03-18T05:26:16;97579.38;;;6.54;82.98
7802;BME280;3945;48.952;9.506;2023-03-18T05:28:42;97576.38;;;6.50;83.46
7802;BME280;3945;48.952;9.506;2023-03-18T05:31:08;97575.06;;;6.41;82.87
7802;BME280;3945;48.952;9.506;2023-03-18T05:33:35;97578.97;;;6.39;83.89
7802;BME280;3945;48.952;9.506;2023-03-18T05:36:03;97573.09;;;6.37;83.63
7802;BME280;3945;48.952;9.506;2023-03-18T05:38:29;97576.97;;;6.34;83.78
7802;BME280;3945;48.952;9.506;2023-03-18T05:40:55;97577.56;;;6.36;83.50
7802;BME280;3945;48.952;9.506;2023-03-18T05:43:22;97585.28;;;6.38;84.11
7802;BME280;3945;48.952;9.506;2023-03-18T05:45:48;97589.75;;;6.37;83.49
7802;BME280;3945;48.952;9.506;2023-03-18T05:48:15;97587.94;;;6.38;84.01
7802;BME280;3945;48.952;9.506;2023-03-18T05:50:41;97593.81;;;6.40;83.30
7802;BME280;3945;48.952;9.506;2023-03-18T05:53:09;97590.56;;;6.38;83.09
7802;BME280;3945;48.952;9.506;2023-03-18T05:55:36;97596.66;;;6.38;82.88
7802;BME280;3945;48.952;9.506;2023-03-18T05:58:04;97589.75;;;6.37;82.73
7802;BME280;3945;48.952;9.506;2023-03-18T06:00:30;97595.63;;;6.39;82.71
7802;BME280;3945;48.952;9.506;2023-03-18T06:02:57;97589.31;;;6.40;82.96
7802;BME280;3945;48.952;9.506;2023-03-18T06:05:24;97590.91;;;6.41;82.42
7802;BME280;3945;48.952;9.506;2023-03-18T06:07:51;97593.00;;;6.39;82.74
7802;BME280;3945;48.952;9.506;2023-03-18T06:10:19;97602.16;;;6.37;82.14
7802;BME280;3945;48.952;9.506;2023-03-18T06:12:46;97591.69;;;6.30;82.44
7802;BME280;3945;48.952;9.506;2023-03-18T06:15:13;97595.56;;;6.27;82.62
7802;BME280;3945;48.952;9.506;2023-03-18T06:17:40;97596.66;;;6.20;83.45
7802;BME280;3945;48.952;9.506;2023-03-18T06:20:08;97597.72;;;6.19;83.01
7802;BME280;3945;48.952;9.506;2023-03-18T06:22:35;97599.91;;;6.22;83.55
7802;BME280;3945;48.952;9.506;2023-03-18T06:25:02;97594.25;;;6.18;83.04
7802;BME280;3945;48.952;9.506;2023-03-18T06:27:30;97602.75;;;6.20;83.01
7802;BME280;3945;48.952;9.506;2023-03-18T06:29:56;97596.81;;;6.25;83.20
7802;BME280;3945;48.952;9.506;2023-03-18T06:32:26;97604.06;;;6.30;84.01
7802;BME280;3945;48.952;9.506;2023-03-18T06:34:54;97610.56;;;6.34;84.04
7802;BME280;3945;48.952;9.506;2023-03-18T06:37:20;97605.41;;;6.39;84.49
7802;BME280;3945;48.952;9.506;2023-03-18T06:39:47;97616.56;;;6.41;84.38
7802;BME280;3945;48.952;9.506;2023-03-18T06:42:13;97609.56;;;6.46;83.79
7802;BME280;3945;48.952;9.506;2023-03-18T06:44:41;97612.13;;;6.53;83.67
7802;BME280;3945;48.952;9.506;2023-03-18T06:47:14;97610.22;;;6.60;83.60
7802;BME280;3945;48.952;9.506;2023-03-18T06:49:41;97617.47;;;6.64;84.13
7802;BME280;3945;48.952;9.506;2023-03-18T06:52:07;97612.69;;;6.73;84.06
7802;BME280;3945;48.952;9.506;2023-03-18T06:54:34;97617.69;;;6.93;83.45
7802;BME280;3945;48.952;9.506;2023-03-18T06:57:00;97621.59;;;7.20;83.97
7802;BME280;3945;48.952;9.506;2023-03-18T06:59:26;97617.34;;;7.42;83.09
7802;BME280;3945;48.952;9.506;2023-03-18T07:01:54;97617.84;;;7.63;82.13
7802;BME280;3945;48.952;9.506;2023-03-18T07:04:20;97617.50;;;7.82;82.25
7802;BME280;3945;48.952;9.506;2023-03-18T07:06:47;97624.19;;;7.97;82.11
7802;BME280;3945;48.952;9.506;2023-03-18T07:09:14;97620.47;;;8.09;81.17
7802;BME280;3945;48.952;9.506;2023-03-18T07:11:40;97627.72;;;8.26;80.72
7802;BME280;3945;48.952;9.506;2023-03-18T07:14:08;97624.63;;;8.40;79.99
7802;BME280;3945;48.952;9.506;2023-03-18T07:16:34;97622.06;;;8.57;79.21
7802;BME280;3945;48.952;9.506;2023-03-18T07:19:02;97623.13;;;8.73;79.18
7802;BME280;3945;48.952;9.506;2023-03-18T07:21:28;97628.41;;;8.84;78.91
7802;BME280;3945;48.952;9.506;2023-03-18T07:23:55;97634.41;;;9.08;79.19
7802;BME280;3945;48.952;9.506;2023-03-18T07:26:21;97634.63;;;9.52;77.92
7802;BME280;3945;48.952;9.506;2023-03-18T07:28:48;97629.28;;;10.02;76.61
7802;BME280;3945;48.952;9.506;2023-03-18T07:31:14;97629.03;;;10.59;75.08
7802;BME280;3945;48.952;9.506;2023-03-18T07:33:40;97629.31;;;11.11;73.39
7802;BME280;3945;48.952;9.506;2023-03-18T07:36:08;97626.59;;;11.64;72.79
7802;BME280;3945;48.952;9.506;2023-03-18T07:38:34;97628.84;;;12.15;69.71
7802;BME280;3945;48.952;9.506;2023-03-18T07:41:01;97632.00;;;12.59;67.31
7802;BME280;3945;48.952;9.506;2023-03-18T07:43:27;97630.00;;;12.96;66.45
7802;BME280;3945;48.952;9.506;2023-03-18T07:45:53;97625.84;;;13.36;66.29
7802;BME280;3945;48.952;9.506;2023-03-18T07:48:22;97636.53;;;13.76;64.92
7802;BME280;3945;48.952;9.506;2023-03-18T07:50:48;97638.66;;;13.99;64.80
7802;BME280;3945;48.952;9.506;2023-03-18T07:53:16;97626.56;;;14.32;64.27
7802;BME280;3945;48.952;9.506;2023-03-18T07:55:43;97636.09;;;14.74;62.18
7802;BME280;3945;48.952;9.506;2023-03-18T07:58:10;97626.22;;;15.13;61.47
7802;BME280;3945;48.952;9.506;2023-03-18T08:00:37;97631.59;;;15.57;59.86
7802;BME280;3945;48.952;9.506;2023-03-18T08:03:03;97630.22;;;15.94;59.08
7802;BME280;3945;48.952;9.506;2023-03-18T08:05:30;97626.38;;;16.29;58.14
7802;BME280;3945;48.952;9.506;2023-03-18T08:07:57;97633.81;;;16.66;56.82
7802;BME280;3945;48.952;9.506;2023-03-18T08:10:27;97630.09;;;17.04;56.92
7802;BME280;3945;48.952;9.506;2023-03-18T08:12:53;97629.78;;;17.43;55.88
7802;BME280;3945;48.952;9.506;2023-03-18T08:15:20;97635.44;;;17.79;55.02
7802;BME280;3945;48.952;9.506;2023-03-18T08:17:46;97633.56;;;18.12;52.34
7802;BME280;3945;48.952;9.506;2023-03-18T08:20:13;97639.28;;;18.38;51.86
7802;BME280;3945;48.952;9.506;2023-03-18T08:22:39;97634.69;;;18.52;50.36
7802;BME280;3945;48.952;9.506;2023-03-18T08:25:06;97635.44;;;18.71;50.46
7802;BME280;3945;48.952;9.506;2023-03-18T08:27:34;97637.31;;;18.98;48.35
7802;BME280;3945;48.952;9.506;2023-03-18T08:30:00;97646.88;;;19.04;47.88
7802;BME280;3945;48.952;9.506;2023-03-18T08:32:27;97646.28;;;19.07;47.53
7802;BME280;3945;48.952;9.506;2023-03-18T08:34:54;97643.69;;;19.16;47.96
7802;BME280;3945;48.952;9.506;2023-03-18T08:37:21;97638.25;;;19.30;44.71
7802;BME280;3945;48.952;9.506;2023-03-18T08:39:48;97633.69;;;19.53;44.86
7802;BME280;3945;48.952;9.506;2023-03-18T08:42:14;97638.31;;;19.74;42.27
7802;BME280;3945;48.952;9.506;2023-03-18T08:44:42;97638.25;;;19.88;39.56
7802;BME280;3945;48.952;9.506;2023-03-18T08:47:08;97639.59;;;19.99;41.17
7802;BME280;3945;48.952;9.506;2023-03-18T08:49:35;97642.34;;;20.08;39.80
7802;BME280;3945;48.952;9.506;2023-03-18T08:52:01;97643.47;;;20.07;40.32
7802;BME280;3945;48.952;9.506;2023-03-18T08:54:27;97638.91;;;20.16;39.88
7802;BME280;3945;48.952;9.506;2023-03-18T08:56:54;97644.84;;;20.26;39.06
7802;BME280;3945;48.952;9.506;2023-03-18T08:59:20;97641.22;;;20.31;38.63
7802;BME280;3945;48.952;9.506;2023-03-18T09:01:48;97638.03;;;20.29;37.02
7802;BME280;3945;48.952;9.506;2023-03-18T09:04:14;97637.38;;;20.23;38.99
7802;BME280;3945;48.952;9.506;2023-03-18T09:06:41;97634.81;;;20.27;38.85
7802;BME280;3945;48.952;9.506;2023-03-18T09:09:07;97629.34;;;20.41;38.25
7802;BME280;3945;48.952;9.506;2023-03-18T09:11:33;97629.53;;;20.44;40.07
7802;BME280;3945;48.952;9.506;2023-03-18T09:14:00;97632.09;;;20.49;36.88
7802;BME280;3945;48.952;9.506;2023-03-18T09:16:26;97629.00;;;20.73;36.19
7802;BME280;3945;48.952;9.506;2023-03-18T09:18:54;97631.09;;;20.85;36.67
7802;BME280;3945;48.952;9.506;2023-03-18T09:21:20;97620.59;;;20.92;37.65
7802;BME280;3945;48.952;9.506;2023-03-18T09:23:47;97623.34;;;21.00;36.39
7802;BME280;3945;48.952;9.506;2023-03-18T09:26:14;97619.69;;;21.05;35.21
7802;BME280;3945;48.952;9.506;2023-03-18T09:28:41;97623.66;;;21.08;36.47
7802;BME280;3945;48.952;9.506;2023-03-18T09:31:07;97622.13;;;21.24;36.34
7802;BME280;3945;48.952;9.506;2023-03-18T09:33:33;97624.50;;;21.34;35.13
7802;BME280;3945;48.952;9.506;2023-03-18T09:36:02;97620.06;;;21.38;35.38
7802;BME280;3945;48.952;9.506;2023-03-18T09:38:29;97614.19;;;21.53;35.43
7802;BME280;3945;48.952;9.506;2023-03-18T09:41:00;97615.44;;;21.64;35.45
7802;BME280;3945;48.952;9.506;2023-03-18T09:45:56;97618.47;;;21.80;33.78
7802;BME280;3945;48.952;9.506;2023-03-18T09:48:38;97609.03;;;21.86;35.25
7802;BME280;3945;48.952;9.506;2023-03-18T09:51:12;97610.63;;;21.96;35.32
7802;BME280;3945;48.952;9.506;2023-03-18T09:53:45;97608.22;;;21.94;34.81
7802;BME280;3945;48.952;9.506;2023-03-18T09:56:14;97604.25;;;22.00;33.96
7802;BME280;3945;48.952;9.506;2023-03-18T09:58:44;97600.84;;;22.20;34.08
7802;BME280;3945;48.952;9.506;2023-03-18T10:01:11;97604.50;;;22.25;33.51
7802;BME280;3945;48.952;9.506;2023-03-18T10:03:38;97600.03;;;22.20;32.75
7802;BME280;3945;48.952;9.506;2023-03-18T10:06:11;97603.56;;;22.20;33.63
7802;BME280;3945;48.952;9.506;2023-03-18T10:08:45;97605.16;;;22.22;32.83
7802;BME280;3945;48.952;9.506;2023-03-18T10:11:17;97604.16;;;22.35;33.01
7802;BME280;3945;48.952;9.506;2023-03-18T10:13:47;97603.50;;;22.38;33.39
7802;BME280;3945;48.952;9.506;2023-03-18T10:16:19;97610.38;;;22.35;34.12
7802;BME280;3945;48.952;9.506;2023-03-18T10:18:47;97613.41;;;22.34;34.00
7802;BME280;3945;48.952;9.506;2023-03-18T10:21:17;97609.66;;;22.17;35.63
7802;BME280;3945;48.952;9.506;2023-03-18T10:23:46;97599.72;;;22.22;35.37
7802;BME280;3945;48.952;9.506;2023-03-18T10:26:15;97597.75;;;22.39;35.49
7802;BME280;3945;48.952;9.506;2023-03-18T10:28:52;97588.13;;;22.50;36.25
7802;BME280;3945;48.952;9.506;2023-03-18T10:31:25;97586.66;;;22.62;34.73
7802;BME280;3945;48.952;9.506;2023-03-18T10:33:56;97574.22;;;22.61;35.14
7802;BME280;3945;48.952;9.506;2023-03-18T10:36:26;97583.53;;;22.80;35.12
7802;BME280;3945;48.952;9.506;2023-03-18T10:38:56;97579.97;;;22.88;35.87
7802;BME280;3945;48.952;9.506;2023-03-18T10:41:28;97578.91;;;22.81;33.01
7802;BME280;3945;48.952;9.506;2023-03-18T10:43:55;97584.53;;;22.67;33.93
7802;BME280;3945;48.952;9.506;2023-03-18T10:46:22;97580.38;;;22.70;35.74
7802;BME280;3945;48.952;9.506;2023-03-18T10:48:51;97582.94;;;22.66;35.80
7802;BME280;3945;48.952;9.506;2023-03-18T10:51:20;97569.91;;;22.59;34.43
7802;BME280;3945;48.952;9.506;2023-03-18T10:53:52;97572.38;;;22.44;34.65
7802;BME280;3945;48.952;9.506;2023-03-18T10:56:20;97567.81;;;22.27;33.03
7802;BME280;3945;48.952;9.506;2023-03-18T10:58:47;97565.88;;;22.36;37.42
7802;BME280;3945;48.952;9.506;2023-03-18T11:01:15;97562.28;;;22.53;35.42
7802;BME280;3945;48.952;9.506;2023-03-18T11:03:44;97571.03;;;22.58;35.48
7802;BME280;3945;48.952;9.506;2023-03-18T11:06:14;97572.47;;;22.56;33.72
7802;BME280;3945;48.952;9.506;2023-03-18T11:08:41;97556.97;;;22.56;34.52
7802;BME280;3945;48.952;9.506;2023-03-18T11:11:19;97560.00;;;22.55;32.89
7802;BME280;3945;48.952;9.506;2023-03-18T11:13:46;97562.53;;;22.69;33.94
7802;BME280;3945;48.952;9.506;2023-03-18T11:16:19;97563.63;;;22.76;33.60
7802;BME280;3945;48.952;9.506;2023-03-18T11:18:47;97553.81;;;22.84;33.02
7802;BME280;3945;48.952;9.506;2023-03-18T11:21:14;97553.59;;;22.98;34.51
7802;BME280;3945;48.952;9.506;2023-03-18T11:23:40;97539.59;;;22.87;31.16
7802;BME280;3945;48.952;9.506;2023-03-18T11:26:21;97540.66;;;22.74;32.47
7802;BME280;3945;48.952;9.506;2023-03-18T11:28:48;97537.44;;;22.72;32.72
7802;BME280;3945;48.952;9.506;2023-03-18T11:31:15;97538.53;;;22.71;32.60
7802;BME280;3945;48.952;9.506;2023-03-18T11:33:42;97534.91;;;22.75;33.77
7802;BME280;3945;48.952;9.506;2023-03-18T11:36:12;97534.50;;;22.85;31.67
7802;BME280;3945;48.952;9.506;2023-03-18T11:38:39;97533.59;;;23.02;32.25
7802;BME280;3945;48.952;9.506;2023-03-18T11:41:07;97526.75;;;23.17;33.32
7802;BME280;3945;48.952;9.506;2023-03-18T11:43:36;97535.94;;;23.45;32.21
7802;BME280;3945;48.952;9.506;2023-03-18T11:46:03;97531.66;;;23.23;31.44
7802;BME280;3945;48.952;9.506;2023-03-18T11:48:30;97520.78;;;23.23;30.32
7802;BME280;3945;48.952;9.506;2023-03-18T11:51:21;97522.94;;;22.97;30.45
7802;BME280;3945;48.952;9.506;2023-03-18T11:53:55;97515.97;;;23.08;32.72
7802;BME280;3945;48.952;9.506;2023-03-18T11:56:25;97518.00;;;23.32;32.33
7802;BME280;3945;48.952;9.506;2023-03-18T11:58:58;97510.50;;;23.50;32.40
7802;BME280;3945;48.952;9.506;2023-03-18T12:01:27;97510.91;;;23.72;32.83
7802;BME280;3945;48.952;9.506;2023-03-18T12:04:15;97510.59;;;23.86;30.03
7802;BME280;3945;48.952;9.506;2023-03-18T12:06:49;97502.25;;;24.03;32.68
7802;BME280;3945;48.952;9.506;2023-03-18T12:09:21;97504.06;;;24.11;29.18
7802;BME280;3945;48.952;9.506;2023-03-18T12:12:00;97504.25;;;23.94;28.66
7802;BME280;3945;48.952;9.506;2023-03-18T12:14:33;97497.94;;;24.02;30.24
7802;BME280;3945;48.952;9.506;2023-03-18T12:17:06;97489.91;;;24.06;30.51
7802;BME280;3945;48.952;9.506;2023-03-18T12:22:24;97490.09;;;24.01;32.31
7802;BME280;3945;48.952;9.506;2023-03-18T12:25:02;97485.72;;;24.21;30.21
7802;BME280;3945;48.952;9.506;2023-03-18T12:27:33;97493.78;;;24.29;29.05
7802;BME280;3945;48.952;9.506;2023-03-18T12:30:06;97483.91;;;24.37;29.92
7802;BME280;3945;48.952;9.506;2023-03-18T12:32:39;97484.13;;;24.44;28.34
7802;BME280;3945;48.952;9.506;2023-03-18T12:35:15;97484.81;;;24.53;27.93
7802;BME280;3945;48.952;9.506;2023-03-18T12:37:51;97473.25;;;24.44;28.20
7802;BME280;3945;48.952;9.506;2023-03-18T12:40:24;97474.63;;;24.38;28.82
7802;BME280;3945;48.952;9.506;2023-03-18T12:43:13;97472.25;;;24.48;29.72
7802;BME280;3945;48.952;9.506;2023-03-18T12:45:46;97464.72;;;24.58;28.79
7802;BME280;3945;48.952;9.506;2023-03-18T12:48:16;97468.59;;;24.44;30.23
7802;BME280;3945;48.952;9.506;2023-03-18T12:50:45;97461.16;;;24.41;30.69
7802;BME280;3945;48.952;9.506;2023-03-18T12:53:15;97461.91;;;24.54;29.73
7802;BME280;3945;48.952;9.506;2023-03-18T12:55:42;97467.09;;;24.59;29.75
7802;BME280;3945;48.952;9.506;2023-03-18T12:58:11;97457.94;;;24.64;29.28
7802;BME280;3945;48.952;9.506;2023-03-18T13:00:40;97464.97;;;24.28;30.06
7802;BME280;3945;48.952;9.506;2023-03-18T13:03:19;97455.69;;;24.05;31.54
7802;BME280;3945;48.952;9.506;2023-03-18T13:05:48;97455.47;;;24.10;31.60
7802;BME280;3945;48.952;9.506;2023-03-18T13:08:20;97446.97;;;24.24;30.08
7802;BME280;3945;48.952;9.506;2023-03-18T13:10:50;97445.94;;;24.40;32.30
7802;BME280;3945;48.952;9.506;2023-03-18T13:13:20;97451.16;;;24.45;29.50
7802;BME280;3945;48.952;9.506;2023-03-18T13:15:48;97448.44;;;24.45;30.44
7802;BME280;3945;48.952;9.506;2023-03-18T13:18:18;97450.09;;;24.50;30.66
7802;BME280;3945;48.952;9.506;2023-03-18T13:20:47;97452.41;;;24.48;30.11
7802;BME280;3945;48.952;9.506;2023-03-18T13:23:15;97442.63;;;24.59;30.58
7802;BME280;3945;48.952;9.506;2023-03-18T13:25:48;97447.47;;;24.66;29.40
7802;BME280;3945;48.952;9.506;2023-03-18T13:31:13;97440.56;;;24.68;30.49
7802;BME280;3945;48.952;9.506;2023-03-18T13:33:54;97443.03;;;24.73;29.64
7802;BME280;3945;48.952;9.506;2023-03-18T13:36:27;97434.66;;;24.66;30.19
7802;BME280;3945;48.952;9.506;2023-03-18T13:39:20;97436.16;;;24.64;31.96
7802;BME280;3945;48.952;9.506;2023-03-18T13:41:54;97437.09;;;24.43;29.81
7802;BME280;3945;48.952;9.506;2023-03-18T13:44:30;97430.53;;;24.32;28.94